Time;durP1;ratioP1;P1;durP2;ratioP2;P2;SDS_P1;SDS_P2;PMS_P1;PMS_P2;Temp;Humidity;BMP_temperature;BMP_pressure;BME280_temperature;BME280_humidity;BME280_pressure;Samples;Min_cycle;Max_cycle;Signal;HPM_P1;HPM_P2
2022/09/03 00:02:16;;;;;;;1999.90;999.90;;;;;;;18.38;56.63;98108.88;4156005;28;20201;-52
2022/09/03 00:04:31;;;;;;;1999.90;999.90;;;;;;;18.40;57.07;98098.34;4172010;28;20883;-51
2022/09/03 00:06:42;;;;;;;1999.90;999.90;;;;;;;18.40;57.06;98097.50;4155384;28;20229;-51
2022/09/03 00:08:50;;;;;;;1999.90;999.90;;;;;;;18.40;57.21;98101.09;4171826;28;20286;-51
2022/09/03 00:11:00;;;;;;;1999.90;999.90;;;;;;;18.41;57.24;98099.13;4156469;28;20651;-51
2022/09/03 00:13:04;;;;;;;1999.90;999.90;;;;;;;18.41;57.47;98099.13;4169286;28;20231;-52
2022/09/03 00:15:10;;;;;;;1999.90;999.90;;;;;;;18.30;57.44;98094.91;4174291;28;20211;-51
2022/09/03 00:17:19;;;;;;;1999.90;999.90;;;;;;;18.33;57.52;98092.38;4186354;28;20208;-52
2022/09/03 00:19:25;;;;;;;1999.90;999.90;;;;;;;18.33;57.41;98086.03;4156178;28;20197;-51
2022/09/03 00:21:48;;;;;;;1999.90;999.90;;;;;;;18.30;57.81;98081.91;4160583;28;20208;-51
2022/09/03 00:23:51;;;;;;;1999.90;999.90;;;;;;;18.30;57.91;98092.13;4146981;28;20305;-51
2022/09/03 00:26:11;;;;;;;1999.90;999.90;;;;;;;18.27;58.22;98087.22;4161148;28;20252;-52
2022/09/03 00:28:17;;;;;;;1999.90;999.90;;;;;;;18.24;58.05;98088.66;4186547;28;20234;-52
2022/09/03 00:30:19;;;;;;;1999.90;999.90;;;;;;;18.21;58.35;98083.75;4161769;28;20661;-51
2022/09/03 00:32:28;;;;;;;1999.90;999.90;;;;;;;18.18;58.45;98086.31;4157159;28;20224;-51
2022/09/03 00:34:40;;;;;;;1999.90;999.90;;;;;;;18.17;58.90;98092.97;4158314;28;20205;-50
2022/09/03 00:36:43;;;;;;;1999.90;999.90;;;;;;;18.12;58.89;98096.66;4153887;28;20200;-52
2022/09/03 00:38:45;;;;;;;1999.90;999.90;;;;;;;18.10;59.45;98092.56;4155522;28;20889;-51
2022/09/03 00:41:12;;;;;;;1999.90;999.90;;;;;;;18.03;59.97;98103.22;4164953;28;20242;-51
2022/09/03 00:43:26;;;;;;;1999.90;999.90;;;;;;;17.96;60.44;98097.28;4169885;28;20244;-52
2022/09/03 00:45:43;;;;;;;1999.90;999.90;;;;;;;17.87;60.55;98096.38;4171120;28;20400;-51
2022/09/03 00:47:47;;;;;;;1999.90;999.90;;;;;;;17.80;60.89;98098.72;4161904;28;20242;-51
2022/09/03 00:50:21;;;;;;;1999.90;999.90;;;;;;;17.76;60.88;98097.69;4168743;28;20209;-51
2022/09/03 00:52:38;;;;;;;1999.90;999.90;;;;;;;17.75;61.21;98093.28;4147716;28;20267;-52
2022/09/03 00:55:11;;;;;;;1999.90;999.90;;;;;;;17.76;61.86;98103.22;4151606;28;20718;-52
2022/09/03 00:57:37;;;;;;;1999.90;999.90;;;;;;;17.73;61.68;98092.78;4103486;28;20246;-51
2022/09/03 00:59:45;;;;;;;1999.90;999.90;;;;;;;17.70;61.93;98101.69;4181408;28;20262;-51
2022/09/03 01:02:06;;;;;;;1999.90;999.90;;;;;;;17.64;62.53;98097.41;4144292;28;20205;-52
2022/09/03 01:04:30;;;;;;;1999.90;999.90;;;;;;;17.60;62.25;98093.59;4168994;28;20208;-52
2022/09/03 01:06:36;;;;;;;1999.90;999.90;;;;;;;17.59;62.33;98097.47;4170307;28;20262;-51
2022/09/03 01:08:49;;;;;;;1999.90;999.90;;;;;;;17.58;62.41;98099.41;4184911;28;20216;-51
2022/09/03 01:10:56;;;;;;;1999.90;999.90;;;;;;;17.57;62.64;98105.25;4151534;28;20266;-51
2022/09/03 01:13:08;;;;;;;1999.90;999.90;;;;;;;17.54;62.74;98105.88;4172593;28;20212;-51
2022/09/03 01:15:39;;;;;;;1999.90;999.90;;;;;;;17.47;62.76;98099.91;4161104;28;20259;-51
2022/09/03 01:17:59;;;;;;;1999.90;999.90;;;;;;;17.42;62.99;98102.75;4162405;28;20573;-50
2022/09/03 01:20:04;;;;;;;1999.90;999.90;;;;;;;17.33;63.02;98099.03;4171793;28;20271;-51
2022/09/03 01:22:23;;;;;;;1999.90;999.90;;;;;;;17.32;63.31;98102.94;4152784;28;20269;-51
2022/09/03 01:25:12;;;;;;;1999.90;999.90;;;;;;;17.33;63.17;98104.56;4150122;28;20216;-51
2022/09/03 01:27:42;;;;;;;1999.90;999.90;;;;;;;17.30;63.44;98105.16;4114404;28;20254;-51
2022/09/03 01:29:54;;;;;;;1999.90;999.90;;;;;;;17.28;63.49;98097.19;4147462;28;20215;-51
2022/09/03 01:32:26;;;;;;;1999.90;999.90;;;;;;;17.28;63.94;98090.81;4168666;28;20263;-51
2022/09/03 01:34:41;;;;;;;1999.90;999.90;;;;;;;17.27;64.03;98094.72;4161098;28;20209;-51
2022/09/03 01:37:12;;;;;;;1999.90;999.90;;;;;;;17.24;64.36;98106.34;4161266;28;20201;-52
2022/09/03 01:39:27;;;;;;;1999.90;999.90;;;;;;;17.20;64.61;98099.81;4144036;28;20209;-51
2022/09/03 01:44:18;;;;;;;1999.90;999.90;;;;;;;17.07;64.82;98100.59;4170428;28;20208;-50
2022/09/03 01:46:26;;;;;;;1995.07;999.90;;;;;;;17.10;64.92;98111.03;4160645;28;20300;-51
2022/09/03 01:48:42;;;;;;;1927.90;999.85;;;;;;;17.08;64.88;98107.75;4184566;28;20728;-50
2022/09/03 01:50:56;;;;;;;1999.90;999.90;;;;;;;17.10;64.94;98105.50;4185882;28;20199;-52
2022/09/03 01:53:14;;;;;;;1989.28;999.90;;;;;;;17.12;64.94;98108.81;4152789;28;20211;-51
2022/09/03 01:55:27;;;;;;;1999.90;999.90;;;;;;;17.10;63.83;98099.97;4154265;28;20213;-51
2022/09/03 01:57:50;;;;;;;1999.90;999.90;;;;;;;17.09;63.89;98109.38;4166772;28;20225;-51
2022/09/03 02:00:19;;;;;;;1999.90;999.90;;;;;;;17.07;63.93;98106.13;4167996;28;20271;-52
2022/09/03 02:02:24;;;;;;;1999.90;999.90;;;;;;;17.00;63.67;98105.69;4168971;28;20230;-52
2022/09/03 02:04:27;;;;;;;1999.90;999.90;;;;;;;16.96;63.77;98107.38;4160460;28;20235;-51
2022/09/03 02:06:30;;;;;;;1999.90;999.90;;;;;;;16.97;63.70;98111.78;4152910;28;20267;-51
2022/09/03 02:08:32;;;;;;;1999.90;999.90;;;;;;;16.99;63.68;98115.91;4153510;28;20267;-52
2022/09/03 02:10:55;;;;;;;1999.90;999.90;;;;;;;17.01;63.69;98112.84;4153825;28;20198;-51
2022/09/03 02:13:04;;;;;;;1999.90;999.90;;;;;;;17.05;63.48;98108.38;4169686;28;20259;-51
2022/09/03 02:15:12;;;;;;;1999.90;999.90;;;;;;;17.08;63.57;98110.50;4151879;28;20363;-51
2022/09/03 02:17:13;;;;;;;1999.90;999.90;;;;;;;17.07;63.43;98111.66;4186003;28;20201;-50
2022/09/03 02:19:18;;;;;;;1999.90;999.90;;;;;;;17.08;63.44;98113.28;4186211;28;20687;-51
2022/09/03 02:21:21;;;;;;;1999.90;999.90;;;;;;;17.11;63.54;98112.69;4150217;28;20691;-51
2022/09/03 02:23:24;;;;;;;1999.90;999.90;;;;;;;17.10;63.40;98111.88;4167081;28;20645;-51
2022/09/03 02:25:35;;;;;;;1999.90;999.90;;;;;;;17.12;63.64;98115.13;4168503;28;20212;-51
2022/09/03 02:27:40;;;;;;;1999.90;999.90;;;;;;;17.14;63.49;98112.91;4166615;28;20258;-50
2022/09/03 02:29:42;;;;;;;1999.90;999.90;;;;;;;17.12;63.28;98104.06;4152647;28;20209;-52
2022/09/03 02:31:43;;;;;;;1999.90;999.90;;;;;;;17.14;63.56;98106.56;4153188;28;20683;-50
2022/09/03 02:33:47;;;;;;;1999.90;999.90;;;;;;;17.14;63.28;98114.84;4154129;28;20746;-51
2022/09/03 02:35:49;;;;;;;1999.90;999.90;;;;;;;17.14;63.31;98109.31;4167938;28;20624;-52
2022/09/03 02:37:50;;;;;;;1999.90;999.90;;;;;;;17.13;63.06;98110.44;4185829;28;20285;-52
2022/09/03 02:39:52;;;;;;;1999.90;999.90;;;;;;;17.13;63.25;98113.22;4167707;28;20204;-51
2022/09/03 02:41:56;;;;;;;1999.90;999.90;;;;;;;17.14;63.46;98106.56;4159778;28;20213;-51
2022/09/03 02:44:03;;;;;;;1999.90;999.90;;;;;;;17.15;63.83;98108.19;4168594;28;20212;-51
2022/09/03 02:46:08;;;;;;;1999.90;999.90;;;;;;;17.14;63.56;98106.56;4160343;28;20236;-52
2022/09/03 02:48:10;;;;;;;1999.90;999.90;;;;;;;17.13;63.96;98104.91;4170893;28;20266;-51
2022/09/03 02:50:12;;;;;;;1999.90;999.90;;;;;;;17.10;64.15;98103.56;4168196;28;20220;-52
2022/09/03 02:52:14;;;;;;;1999.90;999.90;;;;;;;17.09;63.94;98109.38;4140633;28;20217;-52
2022/09/03 02:54:16;;;;;;;1999.90;999.90;;;;;;;17.06;64.21;98098.94;4160687;28;20653;-50
2022/09/03 02:56:24;;;;;;;1999.90;999.90;;;;;;;17.09;64.14;98098.31;4151191;28;20206;-51
2022/09/03 02:58:27;;;;;;;1999.90;999.90;;;;;;;17.10;64.36;98102.72;4149148;28;20225;-52
2022/09/03 03:00:29;;;;;;;1999.90;999.90;;;;;;;17.11;64.49;98101.63;4150079;28;20612;-51
2022/09/03 03:02:30;;;;;;;1999.90;999.90;;;;;;;17.11;64.82;98101.63;4153636;28;20212;-52
2022/09/03 03:04:33;;;;;;;1999.90;999.90;;;;;;;17.10;65.06;98100.81;4168388;28;20219;-52
2022/09/03 03:06:34;;;;;;;1999.78;999.90;;;;;;;17.10;65.48;98097.19;4168728;28;20224;-52
2022/09/03 03:08:36;;;;;;;1999.90;999.90;;;;;;;17.08;65.72;98099.47;4153214;28;20254;-51
2022/09/03 03:10:38;;;;;;;1941.20;999.90;;;;;;;17.08;66.01;98100.28;4153938;28;20252;-52
2022/09/03 03:12:40;;;;;;;1999.90;999.90;;;;;;;17.06;65.85;98096.19;4165731;28;20204;-51
2022/09/03 03:14:42;;;;;;;1999.90;999.90;;;;;;;17.08;65.88;98090.34;4161188;28;20251;-51
2022/09/03 03:16:44;;;;;;;1999.90;999.90;;;;;;;17.08;66.29;98092.00;4183216;28;20195;-53
2022/09/03 03:18:46;;;;;;;1777.75;952.45;;;;;;;16.99;66.56;98090.22;4152087;28;20300;-51
2022/09/03 03:20:51;;;;;;;1999.90;999.90;;;;;;;16.99;66.42;98092.97;4151979;28;20201;-51
2022/09/03 03:22:52;;;;;;;1999.90;999.90;;;;;;;16.97;66.32;98103.50;4153115;28;20201;-51
2022/09/03 03:24:56;;;;;;;1915.40;996.08;;;;;;;16.82;66.61;98103.75;4184811;28;20551;-52
2022/09/03 03:26:58;;;;;;;1914.35;968.50;;;;;;;16.80;66.74;98106.00;4153549;28;20229;-52
2022/09/03 03:29:03;;;;;;;1999.90;999.90;;;;;;;16.80;66.90;98106.00;4160102;28;20208;-51
2022/09/03 03:31:06;;;;;;;1999.90;999.90;;;;;;;16.78;67.04;98099.97;4157825;28;20205;-51
2022/09/03 03:33:09;;;;;;;1999.90;999.90;;;;;;;16.77;67.48;98095.53;4151372;28;20221;-52
2022/09/03 03:35:10;;;;;;;1999.90;999.90;;;;;;;16.79;67.58;98103.53;4155485;28;20256;-51
2022/09/03 03:37:12;;;;;;;1999.90;999.90;;;;;;;16.77;67.98;98101.06;4161660;28;20686;-51
2022/09/03 03:39:14;;;;;;;1999.90;999.90;;;;;;;16.74;68.28;98107.19;4152321;28;20205;-52
2022/09/03 03:41:18;;;;;;;1743.30;878.33;;;;;;;16.76;68.19;98106.91;4152890;28;20210;-51
2022/09/03 03:43:20;;;;;;;1999.90;999.90;;;;;;;16.73;68.34;98122.13;4167278;28;20233;-51
2022/09/03 03:45:22;;;;;;;1999.90;999.90;;;;;;;16.75;67.94;98119.88;4154591;28;20228;-51
2022/09/03 03:47:23;;;;;;;1999.90;999.90;;;;;;;16.77;67.61;98114.06;4163050;28;20244;-51
2022/09/03 03:49:25;;;;;;;1999.90;999.90;;;;;;;16.80;67.91;98108.75;4163215;28;20260;-52
2022/09/03 03:51:27;;;;;;;1999.90;999.90;;;;;;;16.84;68.42;98112.56;4162744;28;20213;-51
2022/09/03 03:53:29;;;;;;;1999.90;999.90;;;;;;;16.79;68.66;98109.88;4162999;28;20205;-51
2022/09/03 03:55:35;;;;;;;1999.90;999.90;;;;;;;16.75;68.60;98110.78;4172299;28;20212;-52
2022/09/03 03:57:36;;;;;;;1999.90;999.90;;;;;;;16.74;68.26;98104.44;4155716;28;20235;-51
2022/09/03 03:59:38;;;;;;;1999.90;999.90;;;;;;;16.70;68.37;98106.13;4154145;28;20216;-51
2022/09/03 04:01:40;;;;;;;1999.90;999.90;;;;;;;16.68;68.94;98105.63;4154666;28;20209;-51
2022/09/03 04:03:42;;;;;;;1999.90;999.90;;;;;;;16.60;68.75;98117.34;4165849;28;20714;-51
2022/09/03 04:05:58;;;;;;;1999.90;999.90;;;;;;;16.56;69.08;98121.81;4170267;28;20669;-51
2022/09/03 04:08:01;;;;;;;1999.90;999.90;;;;;;;16.60;68.64;98114.59;4171409;28;20231;-52
2022/09/03 04:10:03;;;;;;;1999.90;999.90;;;;;;;16.65;68.19;98116.44;4152454;28;20213;-52
2022/09/03 04:12:07;;;;;;;1999.90;999.90;;;;;;;16.59;68.28;98121.25;4171211;28;20535;-51
2022/09/03 04:14:09;;;;;;;1999.90;999.90;;;;;;;16.59;68.02;98121.25;4155972;28;20205;-51
2022/09/03 04:16:13;;;;;;;1821.75;942.50;;;;;;;16.60;67.67;98117.34;4154357;28;20291;-52
2022/09/03 04:18:14;;;;;;;1799.88;913.45;;;;;;;16.61;67.43;98119.00;4161852;28;20228;-52
2022/09/03 04:20:16;;;;;;;1999.90;999.90;;;;;;;16.61;67.46;98119.00;4160134;28;20204;-51
2022/09/03 04:22:19;;;;;;;1999.90;999.90;;;;;;;16.67;67.49;98120.56;4153588;28;20284;-51
2022/09/03 04:24:21;;;;;;;1999.90;999.90;;;;;;;16.66;67.25;98120.84;4162879;28;20267;-51
2022/09/03 04:26:25;;;;;;;1879.55;953.05;;;;;;;16.57;67.12;98120.69;4162041;28;20243;-51
2022/09/03 04:28:27;;;;;;;1762.28;923.33;;;;;;;16.56;67.46;98127.34;4160254;28;20232;-51
2022/09/03 04:30:29;;;;;;;1773.40;911.80;;;;;;;16.57;67.36;98128.97;4171342;28;20208;-51
2022/09/03 04:34:53;;;;;;;1999.90;999.90;;;;;;;16.56;68.26;98121.81;4170703;28;20236;-51
2022/09/03 04:36:56;;;;;;;1847.38;934.28;;;;;;;16.59;67.94;98137.81;4154344;28;20196;-51
2022/09/03 04:39:00;;;;;;;1999.90;999.90;;;;;;;16.61;67.73;98134.75;4156500;28;20655;-52
2022/09/03 04:41:03;;;;;;;1999.90;999.90;;;;;;;16.64;67.99;98139.69;4170291;28;20658;-51
2022/09/03 04:43:05;;;;;;;1999.90;999.90;;;;;;;16.65;68.16;98136.63;4153807;28;20213;-51
2022/09/03 04:45:07;;;;;;;1999.90;999.90;;;;;;;16.66;68.27;98149.31;4162133;28;20208;-51
2022/09/03 04:47:09;;;;;;;1785.10;894.28;;;;;;;16.69;68.62;98162.53;4154745;28;20581;-51
2022/09/03 04:49:11;;;;;;;1999.90;999.90;;;;;;;16.71;69.22;98163.06;4171433;28;20666;-52
2022/09/03 04:51:15;;;;;;;1999.90;999.90;;;;;;;16.40;71.59;98159.06;4159182;28;20208;-52
2022/09/03 04:53:16;;;;;;;1999.90;999.90;;;;;;;16.40;71.35;98156.31;4161340;28;20212;-51
2022/09/03 04:55:18;;;;;;;1999.90;999.90;;;;;;;16.16;74.91;98166.50;4185482;28;20701;-51
2022/09/03 04:57:21;;;;;;;1999.90;999.90;;;;;;;16.22;74.83;98162.56;4157491;28;20218;-52
2022/09/03 04:59:23;;;;;;;1999.90;999.90;;;;;;;16.22;76.46;98170.84;4157727;28;20246;-52
2022/09/03 05:01:27;;;;;;;1999.90;999.90;;;;;;;16.25;75.12;98180.50;4154614;28;20216;-51
2022/09/03 05:03:29;;;;;;;1999.90;999.90;;;;;;;16.30;75.69;98184.00;4166752;28;20789;-51
2022/09/03 05:05:32;;;;;;;1999.90;999.90;;;;;;;16.32;75.67;98176.28;4184393;28;20236;-52
2022/09/03 05:07:37;;;;;;;1999.90;999.90;;;;;;;16.35;76.98;98177.63;4154146;28;20229;-51
2022/09/03 05:09:39;;;;;;;1999.90;999.90;;;;;;;16.21;78.95;98177.50;4169384;28;20209;-51
2022/09/03 05:11:42;;;;;;;1999.90;999.90;;;;;;;16.17;79.16;98173.66;4168941;28;20200;-51
2022/09/03 05:13:48;;;;;;;1999.90;999.90;;;;;;;16.08;79.68;98174.59;4159093;28;21001;-51
2022/09/03 05:15:49;;;;;;;1999.90;999.90;;;;;;;15.97;81.08;98173.09;4137107;28;20205;-51
2022/09/03 05:17:55;;;;;;;1999.90;999.90;;;;;;;15.85;82.33;98175.44;4142184;28;20580;-51
2022/09/03 05:19:57;;;;;;;1999.90;999.90;;;;;;;15.79;83.08;98171.91;4185981;28;20218;-51
2022/09/03 05:21:58;;;;;;;1999.90;999.90;;;;;;;15.84;82.72;98176.56;4157745;28;20208;-51
2022/09/03 05:24:01;;;;;;;1999.90;999.90;;;;;;;15.85;82.74;98162.47;4150753;28;20213;-51
2022/09/03 05:26:08;;;;;;;1999.90;999.90;;;;;;;15.73;84.16;98172.25;4157326;28;20264;-51
2022/09/03 05:28:12;;;;;;;1999.90;999.90;;;;;;;15.65;84.28;98170.97;4159296;28;20323;-50
2022/09/03 05:30:13;;;;;;;1999.90;999.90;;;;;;;15.71;83.86;98174.47;4156583;28;20209;-51
2022/09/03 05:32:16;;;;;;;1999.90;999.90;;;;;;;15.74;83.70;98169.19;4184314;28;20632;-51
2022/09/03 05:34:17;;;;;;;1999.90;999.90;;;;;;;15.82;83.79;98157.53;4174616;28;20317;-50
2022/09/03 05:36:24;;;;;;;1999.90;999.90;;;;;;;15.86;83.89;98163.28;4169798;28;20270;-50
2022/09/03 05:38:26;;;;;;;1999.90;999.90;;;;;;;15.89;83.86;98155.22;4158189;28;20240;-50
2022/09/03 05:40:28;;;;;;;1999.90;999.90;;;;;;;15.91;83.62;98150.22;4184906;28;20256;-50
2022/09/03 05:42:34;;;;;;;1999.90;999.90;;;;;;;15.93;83.67;98150.78;4187276;28;20293;-51
2022/09/03 05:44:35;;;;;;;1999.90;999.90;;;;;;;15.95;85.60;98154.06;4158767;28;20662;-51
2022/09/03 05:46:37;;;;;;;1999.90;999.90;;;;;;;15.85;86.67;98154.19;4155220;28;20205;-50
2022/09/03 05:48:39;;;;;;;1999.90;999.90;;;;;;;15.77;88.11;98154.00;4159140;28;20231;-51
2022/09/03 05:50:41;;;;;;;1999.90;999.90;;;;;;;15.79;87.41;98155.34;4158877;28;20220;-50
2022/09/03 05:52:43;;;;;;;1999.90;999.90;;;;;;;15.80;87.32;98156.16;4136033;28;20210;-50
2022/09/03 05:54:45;;;;;;;1999.90;999.90;;;;;;;15.83;87.19;98159.16;4154658;28;20200;-50
2022/09/03 05:56:48;;;;;;;1999.90;999.90;;;;;;;15.84;87.37;98163.56;4154375;28;20326;-50
2022/09/03 05:58:52;;;;;;;1999.90;999.90;;;;;;;15.82;87.62;98165.00;4153505;28;20233;-51
2022/09/03 06:00:53;;;;;;;1999.90;999.90;;;;;;;15.75;88.72;98162.56;4157274;28;20205;-51
2022/09/03 06:02:55;;;;;;;1999.90;999.90;;;;;;;15.79;87.54;98163.63;4168996;28;20270;-50
2022/09/03 06:04:57;;;;;;;1685.15;841.35;;;;;;;15.88;88.55;98170.16;4157733;28;20287;-50
2022/09/03 06:06:59;;;;;;;1441.20;726.03;;;;;;;15.53;91.73;98178.78;4170534;28;20266;-49
2022/09/03 06:09:03;;;;;;;1237.20;662.38;;;;;;;15.27;93.69;98171.81;4184179;28;20235;-50
2022/09/03 06:11:06;;;;;;;1393.80;749.65;;;;;;;15.32;93.84;98166.31;4153780;28;20379;-50
2022/09/03 06:13:07;;;;;;;1552.57;801.90;;;;;;;15.41;93.94;98161.78;4182956;28;20200;-50
2022/09/03 06:15:09;;;;;;;1256.40;690.20;;;;;;;15.53;92.57;98166.91;4159324;28;20199;-50
2022/09/03 06:17:11;;;;;;;1655.30;854.85;;;;;;;15.63;92.12;98173.16;4151759;28;20250;-50
2022/09/03 06:19:13;;;;;;;932.38;466.98;;;;;;;15.72;90.94;98176.94;4170135;28;20748;-49
2022/09/03 06:21:15;;;;;;;1999.90;999.90;;;;;;;15.79;90.30;98180.19;4166896;28;20208;-49
2022/09/03 06:23:17;;;;;;;1739.07;878.85;;;;;;;15.88;90.09;98181.19;4183404;28;20245;-49
2022/09/03 06:25:18;;;;;;;895.60;438.27;;;;;;;15.96;89.74;98176.97;4184223;28;20211;-49
2022/09/03 06:27:21;;;;;;;1999.90;999.90;;;;;;;16.00;89.80;98173.34;4185435;28;20673;-49
2022/09/03 06:29:23;;;;;;;1999.90;999.90;;;;;;;16.05;89.06;98176.03;4150633;28;20209;-49
2022/09/03 06:31:25;;;;;;;1999.90;999.90;;;;;;;16.14;89.02;98176.19;4185184;28;20284;-49
2022/09/03 06:33:32;;;;;;;1999.90;999.90;;;;;;;16.18;89.87;98169.81;4154092;28;20209;-49
2022/09/03 06:35:34;;;;;;;1999.90;999.90;;;;;;;15.99;92.14;98165.34;4151536;28;20201;-49
2022/09/03 06:37:44;;;;;;;1593.80;792.95;;;;;;;16.05;91.74;98164.16;4154141;28;20320;-49
2022/09/03 06:39:45;;;;;;;1999.90;999.90;;;;;;;16.05;91.99;98165.00;4175493;28;20199;-49
2022/09/03 06:41:50;;;;;;;1999.90;999.90;;;;;;;15.96;92.68;98166.75;4185018;28;20211;-49
2022/09/03 06:43:56;;;;;;;1999.90;999.90;;;;;;;15.85;93.21;98162.47;4156621;28;20204;-49
2022/09/03 06:46:00;;;;;;;1999.90;999.90;;;;;;;15.88;93.29;98161.03;4171470;28;20250;-50
2022/09/03 06:48:02;;;;;;;1999.90;999.90;;;;;;;15.90;93.42;98154.13;4158970;28;20233;-49
2022/09/03 06:50:04;;;;;;;1999.90;999.90;;;;;;;15.95;93.28;98156.03;4155981;28;20884;-50
2022/09/03 06:52:05;;;;;;;1999.90;999.90;;;;;;;15.96;93.14;98166.75;4152621;28;20264;-50
2022/09/03 06:54:10;;;;;;;1999.90;999.90;;;;;;;16.03;92.99;98172.72;4170366;28;20223;-49
2022/09/03 06:56:25;;;;;;;1999.90;999.90;;;;;;;16.05;92.72;98173.28;4175870;28;20681;-49
2022/09/03 06:58:37;;;;;;;1999.90;999.90;;;;;;;15.82;94.89;98176.84;4159785;28;20252;-50
2022/09/03 07:00:39;;;;;;;1999.90;999.90;;;;;;;15.85;95.12;98175.44;4184820;28;20194;-49
2022/09/03 07:02:41;;;;;;;1999.90;999.90;;;;;;;15.64;95.86;98185.03;4166237;28;20203;-49
2022/09/03 07:04:45;;;;;;;1999.90;999.90;;;;;;;15.70;95.62;98201.22;4159735;28;20326;-50
2022/09/03 07:06:48;;;;;;;1999.90;999.90;;;;;;;15.80;94.91;98203.06;4171724;28;20212;-49
2022/09/03 07:08:50;;;;;;;1999.90;999.90;;;;;;;15.80;94.97;98205.81;4137030;28;20240;-49
2022/09/03 07:10:52;;;;;;;1597.65;795.97;;;;;;;15.88;95.42;98203.25;4152362;28;20883;-48
2022/09/03 07:12:54;;;;;;;1999.90;999.90;;;;;;;15.67;97.72;98201.81;4183490;28;20639;-50
2022/09/03 07:14:57;;;;;;;1672.78;834.95;;;;;;;15.69;97.23;98185.00;4153352;28;20201;-49
2022/09/03 07:16:58;;;;;;;1225.65;559.85;;;;;;;15.64;98.03;98185.84;4155888;28;20208;-48
2022/09/03 07:19:02;;;;;;;1606.03;793.55;;;;;;;15.69;97.75;98194.06;4152712;28;20201;-49
2022/09/03 07:21:09;;;;;;;1999.90;999.90;;;;;;;15.77;96.88;98196.19;4168622;28;20213;-49
2022/09/03 07:23:10;;;;;;;1999.90;999.90;;;;;;;15.83;95.67;98200.53;4189312;28;20585;-49
2022/09/03 07:25:12;;;;;;;1999.90;999.90;;;;;;;15.91;94.98;98207.38;4157985;28;20714;-48
2022/09/03 07:27:14;;;;;;;1999.90;999.90;;;;;;;16.00;94.10;98200.09;4156725;28;20228;-49
2022/09/03 07:29:18;;;;;;;1999.90;999.90;;;;;;;16.06;93.88;98207.22;4157227;28;20201;-49
2022/09/03 07:31:24;;;;;;;1999.90;999.90;;;;;;;16.14;93.98;98195.53;4151364;28;20213;-49
2022/09/03 07:33:28;;;;;;;1647.03;821.15;;;;;;;16.19;94.00;98188.03;4153207;28;20207;-48
2022/09/03 07:35:35;;;;;;;1999.90;999.90;;;;;;;16.14;95.63;98185.31;4159729;28;20212;-49
2022/09/03 07:37:40;;;;;;;1999.90;999.90;;;;;;;16.12;95.37;98187.56;4160168;28;20241;-50
2022/09/03 07:39:42;;;;;;;1999.90;999.90;;;;;;;16.20;94.95;98194.34;4159507;28;20204;-49
2022/09/03 07:41:45;;;;;;;1999.90;999.90;;;;;;;16.22;95.04;98183.84;4159397;28;20209;-50
2022/09/03 07:43:47;;;;;;;1999.90;999.90;;;;;;;16.32;95.07;98192.84;4153695;28;20209;-48
2022/09/03 07:45:51;;;;;;;1999.90;999.90;;;;;;;16.31;96.49;98191.19;4186922;28;20196;-49
2022/09/03 07:47:53;;;;;;;1999.90;999.90;;;;;;;16.16;97.08;98183.06;4171501;28;20240;-49
2022/09/03 07:49:54;;;;;;;1999.90;999.90;;;;;;;16.19;96.96;98199.06;4156269;28;20634;-49
2022/09/03 07:51:56;;;;;;;1999.90;999.90;;;;;;;16.26;97.37;98210.59;4155615;28;20205;-49
2022/09/03 07:54:03;;;;;;;1999.90;999.90;;;;;;;16.29;96.49;98209.19;4168730;28;21280;-48
2022/09/03 07:56:07;;;;;;;720.15;338.58;;;;;;;15.91;97.42;98199.91;4155557;28;20333;-50
2022/09/03 07:58:13;;;;;;;1999.90;999.90;;;;;;;15.97;98.32;98209.78;4172234;28;20745;-50
2022/09/03 08:00:16;;;;;;;1649.05;821.78;;;;;;;15.93;98.61;98202.38;4156920;28;20216;-51
2022/09/03 08:02:18;;;;;;;1999.90;999.90;;;;;;;16.08;97.74;98213.25;4149962;28;21292;-51
2022/09/03 08:04:20;;;;;;;1337.10;645.17;;;;;;;16.20;97.91;98211.75;4155645;28;20214;-51
2022/09/03 08:06:24;;;;;;;1999.90;999.90;;;;;;;16.28;98.39;98211.09;4168136;28;20208;-51
2022/09/03 08:08:26;;;;;;;1690.22;833.17;;;;;;;16.37;99.10;98212.09;4154358;28;20224;-50
2022/09/03 08:10:37;;;;;;;1999.90;999.90;;;;;;;16.47;99.61;98217.53;4183431;28;20673;-51
2022/09/03 08:12:38;;;;;;;1999.90;999.90;;;;;;;16.58;99.53;98224.59;4156304;28;20209;-52
2022/09/03 08:14:40;;;;;;;1999.90;999.90;;;;;;;16.43;97.87;98227.50;4157470;28;20224;-51
2022/09/03 08:16:47;;;;;;;1999.90;999.90;;;;;;;16.59;99.18;98234.53;4157358;28;20260;-50
2022/09/03 08:18:50;;;;;;;1359.03;664.13;;;;;;;16.73;98.18;98232.69;4188145;28;20238;-51
2022/09/03 08:20:51;;;;;;;1999.90;999.90;;;;;;;16.84;98.26;98234.16;4154383;28;20207;-50
2022/09/03 08:23:01;;;;;;;1697.57;838.60;;;;;;;16.96;98.27;98231.78;4160924;28;20730;-51
2022/09/03 08:25:03;;;;;;;1999.90;999.90;;;;;;;17.10;98.64;98232.69;4158777;28;20212;-51
2022/09/03 08:27:05;;;;;;;1999.90;999.90;;;;;;;17.21;97.95;98229.50;4168241;28;20203;-51
2022/09/03 08:29:06;;;;;;;1999.90;999.90;;;;;;;17.24;96.76;98228.06;4160772;28;21150;-50
2022/09/03 08:31:12;;;;;;;1654.63;821.63;;;;;;;17.31;97.58;98228.53;4159489;28;20216;-51
2022/09/03 08:33:14;;;;;;;1999.90;999.90;;;;;;;17.40;97.25;98229.50;4170559;28;20719;-51
2022/09/03 08:35:16;;;;;;;1999.90;999.90;;;;;;;17.42;96.61;98232.78;4172248;28;20213;-51
2022/09/03 08:37:17;;;;;;;1999.90;999.90;;;;;;;17.53;96.41;98237.03;4159496;28;20239;-51
2022/09/03 08:39:19;;;;;;;1999.90;999.90;;;;;;;17.62;95.20;98236.06;4167190;28;20267;-50
2022/09/03 08:41:29;;;;;;;1999.90;999.90;;;;;;;17.73;94.72;98242.25;4158121;28;20304;-50
2022/09/03 08:43:32;;;;;;;1999.90;999.90;;;;;;;17.67;96.00;98243.44;4186565;28;20255;-50
2022/09/03 08:45:35;;;;;;;1999.90;999.90;;;;;;;17.72;95.32;98246.13;4160495;28;20298;-52
2022/09/03 08:47:46;;;;;;;1999.90;999.90;;;;;;;17.88;94.53;98239.22;4157669;28;20275;-50
2022/09/03 08:49:55;;;;;;;1999.90;999.90;;;;;;;17.87;94.16;98243.09;4155029;28;20205;-50
2022/09/03 08:51:59;;;;;;;1999.90;999.90;;;;;;;18.02;93.18;98246.44;4184238;28;20221;-49
2022/09/03 08:54:01;;;;;;;1999.90;999.90;;;;;;;17.90;94.21;98236.94;4185659;28;20207;-48
2022/09/03 08:56:07;;;;;;;1999.90;999.90;;;;;;;18.00;94.80;98250.63;4152290;28;20213;-50
2022/09/03 08:58:20;;;;;;;1999.90;999.90;;;;;;;18.01;95.43;98255.03;4151931;28;20225;-50
2022/09/03 09:00:22;;;;;;;1999.90;999.90;;;;;;;18.10;94.88;98261.50;4158991;28;20989;-48
2022/09/03 09:02:38;;;;;;;1632.50;807.90;;;;;;;18.19;95.57;98256.94;4187149;28;20206;-48
2022/09/03 09:04:59;;;;;;;1999.90;999.90;;;;;;;18.42;95.58;98267.03;4184864;28;20211;-48
2022/09/03 09:07:12;;;;;;;1999.90;999.90;;;;;;;18.57;94.44;98264.00;4188363;28;20766;-48
2022/09/03 09:09:35;;;;;;;1999.90;999.90;;;;;;;18.45;93.17;98260.91;4156497;28;20236;-48
2022/09/03 09:11:47;;;;;;;1999.90;999.90;;;;;;;18.66;95.01;98253.81;4169274;28;20258;-49
2022/09/03 09:13:57;;;;;;;1999.90;999.90;;;;;;;18.83;93.21;98256.75;4149403;28;20205;-48
2022/09/03 09:16:29;;;;;;;1999.90;999.90;;;;;;;18.86;93.86;98262.50;4173874;28;20204;-49
2022/09/03 09:19:10;;;;;;;1999.90;999.90;;;;;;;18.91;92.72;98259.63;4144976;28;20775;-49
2022/09/03 09:21:17;;;;;;;1999.90;999.90;;;;;;;18.90;93.93;98263.53;4161540;28;20574;-49
2022/09/03 09:23:35;;;;;;;1999.90;999.90;;;;;;;19.03;92.03;98267.41;4162009;28;20200;-49
2022/09/03 09:25:58;;;;;;;1999.90;999.90;;;;;;;19.32;92.14;98265.16;4167882;28;20203;-49
2022/09/03 09:28:28;;;;;;;1999.90;999.90;;;;;;;19.64;91.73;98262.19;4170750;28;20239;-48